sensor_id;sensor_type;location;lat;lon;timestamp;P1;durP1;ratioP1;P2;durP2;ratioP2
15490;SDS011;7847;50.930;4.336;2023-04-03T00:01:00;0.60;;;0.60;;
15490;SDS011;7847;50.930;4.336;2023-04-03T00:03:26;0.50;;;0.50;;
15490;SDS011;7847;50.930;4.336;2023-04-03T00:05:52;0.50;;;0.50;;
15490;SDS011;7847;50.930;4.336;2023-04-03T00:08:18;0.60;;;0.60;;
15490;SDS011;7847;50.930;4.336;2023-04-03T00:10:44;0.50;;;0.50;;
15490;SDS011;7847;50.930;4.336;2023-04-03T00:13:11;0.50;;;0.50;;
15490;SDS011;7847;50.930;4.336;2023-04-03T00:15:37;0.60;;;0.60;;
15490;SDS011;7847;50.930;4.336;2023-04-03T00:18:04;0.50;;;0.50;;
15490;SDS011;7847;50.930;4.336;2023-04-03T00:20:30;0.50;;;0.50;;
15490;SDS011;7847;50.930;4.336;2023-04-03T00:22:56;0.53;;;0.53;;
15490;SDS011;7847;50.930;4.336;2023-04-03T00:25:22;0.50;;;0.50;;
15490;SDS011;7847;50.930;4.336;2023-04-03T00:27:49;0.50;;;0.50;;
15490;SDS011;7847;50.930;4.336;2023-04-03T00:30:16;0.50;;;0.50;;
15490;SDS011;7847;50.930;4.336;2023-04-03T00:32:42;0.50;;;0.50;;
15490;SDS011;7847;50.930;4.336;2023-04-03T00:35:08;0.53;;;0.53;;
15490;SDS011;7847;50.930;4.336;2023-04-03T00:37:35;0.60;;;0.60;;
15490;SDS011;7847;50.930;4.336;2023-04-03T00:40:01;0.50;;;0.50;;
15490;SDS011;7847;50.930;4.336;2023-04-03T00:42:27;0.53;;;0.53;;
15490;SDS011;7847;50.930;4.336;2023-04-03T00:47:23;0.57;;;0.57;;
15490;SDS011;7847;50.930;4.336;2023-04-03T00:49:49;0.50;;;0.50;;
15490;SDS011;7847;50.930;4.336;2023-04-03T00:52:16;0.60;;;0.60;;
15490;SDS011;7847;50.930;4.336;2023-04-03T00:54:43;0.63;;;0.63;;
15490;SDS011;7847;50.930;4.336;2023-04-03T00:57:09;0.60;;;0.60;;
15490;SDS011;7847;50.930;4.336;2023-04-03T00:59:36;0.40;;;0.40;;
15490;SDS011;7847;50.930;4.336;2023-04-03T01:02:05;0.60;;;0.60;;
15490;SDS011;7847;50.930;4.336;2023-04-03T01:04:32;0.57;;;0.57;;
15490;SDS011;7847;50.930;4.336;2023-04-03T01:07:00;0.60;;;0.60;;
15490;SDS011;7847;50.930;4.336;2023-04-03T01:09:27;0.70;;;0.70;;
15490;SDS011;7847;50.930;4.336;2023-04-03T01:11:54;0.60;;;0.60;;
15490;SDS011;7847;50.930;4.336;2023-04-03T01:14:20;0.57;;;0.57;;
15490;SDS011;7847;50.930;4.336;2023-04-03T01:16:53;0.60;;;0.60;;
15490;SDS011;7847;50.930;4.336;2023-04-03T01:19:19;0.50;;;0.50;;
15490;SDS011;7847;50.930;4.336;2023-04-03T01:21:56;0.50;;;0.50;;
15490;SDS011;7847;50.930;4.336;2023-04-03T01:26:59;0.50;;;0.50;;
15490;SDS011;7847;50.930;4.336;2023-04-03T01:29:26;0.50;;;0.50;;
15490;SDS011;7847;50.930;4.336;2023-04-03T01:31:54;0.60;;;0.60;;
15490;SDS011;7847;50.930;4.336;2023-04-03T01:34:20;0.50;;;0.50;;
15490;SDS011;7847;50.930;4.336;2023-04-03T01:36:47;0.60;;;0.60;;
15490;SDS011;7847;50.930;4.336;2023-04-03T01:39:13;0.60;;;0.60;;
15490;SDS011;7847;50.930;4.336;2023-04-03T01:41:39;0.60;;;0.60;;
15490;SDS011;7847;50.930;4.336;2023-04-03T01:44:05;0.70;;;0.70;;
15490;SDS011;7847;50.930;4.336;2023-04-03T01:46:31;0.70;;;0.70;;
15490;SDS011;7847;50.930;4.336;2023-04-03T01:48:58;0.70;;;0.70;;
15490;SDS011;7847;50.930;4.336;2023-04-03T01:51:24;0.67;;;0.67;;
15490;SDS011;7847;50.930;4.336;2023-04-03T01:53:50;0.47;;;0.47;;
15490;SDS011;7847;50.930;4.336;2023-04-03T01:56:16;0.50;;;0.50;;
15490;SDS011;7847;50.930;4.336;2023-04-03T01:58:42;0.60;;;0.60;;
15490;SDS011;7847;50.930;4.336;2023-04-03T02:01:08;0.60;;;0.60;;
15490;SDS011;7847;50.930;4.336;2023-04-03T02:03:35;0.50;;;0.50;;
15490;SDS011;7847;50.930;4.336;2023-04-03T02:06:01;0.50;;;0.50;;
15490;SDS011;7847;50.930;4.336;2023-04-03T02:08:27;0.63;;;0.63;;
15490;SDS011;7847;50.930;4.336;2023-04-03T02:10:53;0.60;;;0.60;;
15490;SDS011;7847;50.930;4.336;2023-04-03T02:13:20;0.60;;;0.60;;
15490;SDS011;7847;50.930;4.336;2023-04-03T02:15:49;0.40;;;0.40;;
15490;SDS011;7847;50.930;4.336;2023-04-03T02:18:15;0.50;;;0.50;;
15490;SDS011;7847;50.930;4.336;2023-04-03T02:20:41;0.60;;;0.60;;
15490;SDS011;7847;50.930;4.336;2023-04-03T02:23:07;0.50;;;0.50;;
15490;SDS011;7847;50.930;4.336;2023-04-03T02:25:33;0.60;;;0.60;;
15490;SDS011;7847;50.930;4.336;2023-04-03T02:27:59;0.57;;;0.57;;
15490;SDS011;7847;50.930;4.336;2023-04-03T02:30:25;0.60;;;0.60;;
15490;SDS011;7847;50.930;4.336;2023-04-03T02:32:51;0.50;;;0.50;;
15490;SDS011;7847;50.930;4.336;2023-04-03T02:35:17;0.57;;;0.57;;
15490;SDS011;7847;50.930;4.336;2023-04-03T02:37:43;0.60;;;0.60;;
15490;SDS011;7847;50.930;4.336;2023-04-03T02:40:09;0.60;;;0.60;;
15490;SDS011;7847;50.930;4.336;2023-04-03T02:42:36;0.53;;;0.53;;
15490;SDS011;7847;50.930;4.336;2023-04-03T02:45:02;0.50;;;0.50;;
15490;SDS011;7847;50.930;4.336;2023-04-03T02:47:29;0.70;;;0.70;;
15490;SDS011;7847;50.930;4.336;2023-04-03T02:49:55;0.70;;;0.70;;
15490;SDS011;7847;50.930;4.336;2023-04-03T02:52:21;0.50;;;0.50;;
15490;SDS011;7847;50.930;4.336;2023-04-03T02:54:47;0.50;;;0.50;;
15490;SDS011;7847;50.930;4.336;2023-04-03T02:57:13;0.60;;;0.60;;
15490;SDS011;7847;50.930;4.336;2023-04-03T02:59:39;0.60;;;0.60;;
15490;SDS011;7847;50.930;4.336;2023-04-03T03:02:06;0.50;;;0.50;;
15490;SDS011;7847;50.930;4.336;2023-04-03T03:04:32;0.50;;;0.50;;
15490;SDS011;7847;50.930;4.336;2023-04-03T03:06:58;0.60;;;0.60;;
15490;SDS011;7847;50.930;4.336;2023-04-03T03:09:24;0.50;;;0.50;;
15490;SDS011;7847;50.930;4.336;2023-04-03T03:11:51;0.60;;;0.60;;
15490;SDS011;7847;50.930;4.336;2023-04-03T03:14:17;0.60;;;0.60;;
15490;SDS011;7847;50.930;4.336;2023-04-03T03:16:43;0.40;;;0.40;;
15490;SDS011;7847;50.930;4.336;2023-04-03T03:19:09;0.50;;;0.50;;
15490;SDS011;7847;50.930;4.336;2023-04-03T03:21:35;0.60;;;0.60;;
15490;SDS011;7847;50.930;4.336;2023-04-03T03:24:02;0.60;;;0.60;;
15490;SDS011;7847;50.930;4.336;2023-04-03T03:26:28;0.50;;;0.50;;
15490;SDS011;7847;50.930;4.336;2023-04-03T03:28:55;0.50;;;0.50;;
15490;SDS011;7847;50.930;4.336;2023-04-03T03:31:21;0.57;;;0.57;;
15490;SDS011;7847;50.930;4.336;2023-04-03T03:33:47;0.60;;;0.60;;
15490;SDS011;7847;50.930;4.336;2023-04-03T03:36:13;0.50;;;0.50;;
15490;SDS011;7847;50.930;4.336;2023-04-03T03:38:39;0.50;;;0.50;;
15490;SDS011;7847;50.930;4.336;2023-04-03T03:41:05;0.50;;;0.50;;
15490;SDS011;7847;50.930;4.336;2023-04-03T03:43:31;0.57;;;0.57;;
15490;SDS011;7847;50.930;4.336;2023-04-03T03:45:57;0.50;;;0.50;;
15490;SDS011;7847;50.930;4.336;2023-04-03T03:48:23;0.60;;;0.60;;
15490;SDS011;7847;50.930;4.336;2023-04-03T03:50:49;0.50;;;0.50;;
15490;SDS011;7847;50.930;4.336;2023-04-03T03:53:16;0.60;;;0.60;;
15490;SDS011;7847;50.930;4.336;2023-04-03T03:55:42;0.60;;;0.60;;
15490;SDS011;7847;50.930;4.336;2023-04-03T03:58:08;0.60;;;0.60;;
15490;SDS011;7847;50.930;4.336;2023-04-03T04:00:34;0.47;;;0.47;;
15490;SDS011;7847;50.930;4.336;2023-04-03T04:03:00;0.50;;;0.50;;
15490;SDS011;7847;50.930;4.336;2023-04-03T04:05:26;0.50;;;0.50;;
15490;SDS011;7847;50.930;4.336;2023-04-03T04:07:52;0.60;;;0.60;;
15490;SDS011;7847;50.930;4.336;2023-04-03T04:10:18;0.50;;;0.50;;
15490;SDS011;7847;50.930;4.336;2023-04-03T04:12:45;0.57;;;0.57;;
15490;SDS011;7847;50.930;4.336;2023-04-03T04:15:11;0.50;;;0.50;;
15490;SDS011;7847;50.930;4.336;2023-04-03T04:17:37;0.70;;;0.70;;
15490;SDS011;7847;50.930;4.336;2023-04-03T04:20:03;0.40;;;0.40;;
15490;SDS011;7847;50.930;4.336;2023-04-03T04:22:30;0.50;;;0.50;;
15490;SDS011;7847;50.930;4.336;2023-04-03T04:24:56;0.50;;;0.50;;
15490;SDS011;7847;50.930;4.336;2023-04-03T04:27:22;0.47;;;0.47;;
15490;SDS011;7847;50.930;4.336;2023-04-03T04:29:48;0.50;;;0.50;;
15490;SDS011;7847;50.930;4.336;2023-04-03T04:32:14;0.50;;;0.50;;
15490;SDS011;7847;50.930;4.336;2023-04-03T04:34:40;0.50;;;0.50;;
15490;SDS011;7847;50.930;4.336;2023-04-03T04:37:06;0.67;;;0.67;;
15490;SDS011;7847;50.930;4.336;2023-04-03T04:39:33;0.60;;;0.60;;
15490;SDS011;7847;50.930;4.336;2023-04-03T04:41:59;0.50;;;0.50;;
15490;SDS011;7847;50.930;4.336;2023-04-03T04:44:25;0.40;;;0.40;;
15490;SDS011;7847;50.930;4.336;2023-04-03T04:46:51;0.50;;;0.50;;
15490;SDS011;7847;50.930;4.336;2023-04-03T04:49:17;0.50;;;0.50;;
15490;SDS011;7847;50.930;4.336;2023-04-03T04:51:43;0.40;;;0.40;;
15490;SDS011;7847;50.930;4.336;2023-04-03T04:54:09;0.60;;;0.60;;
15490;SDS011;7847;50.930;4.336;2023-04-03T04:56:36;0.67;;;0.67;;
15490;SDS011;7847;50.930;4.336;2023-04-03T04:59:02;0.50;;;0.50;;
15490;SDS011;7847;50.930;4.336;2023-04-03T05:01:28;0.60;;;0.60;;
15490;SDS011;7847;50.930;4.336;2023-04-03T05:03:54;0.60;;;0.60;;
15490;SDS011;7847;50.930;4.336;2023-04-03T05:06:20;0.50;;;0.50;;
15490;SDS011;7847;50.930;4.336;2023-04-03T05:08:46;0.50;;;0.50;;
15490;SDS011;7847;50.930;4.336;2023-04-03T05:11:12;0.60;;;0.60;;
15490;SDS011;7847;50.930;4.336;2023-04-03T05:13:38;0.50;;;0.50;;
15490;SDS011;7847;50.930;4.336;2023-04-03T05:16:04;0.57;;;0.57;;
15490;SDS011;7847;50.930;4.336;2023-04-03T05:18:30;0.50;;;0.50;;
15490;SDS011;7847;50.930;4.336;2023-04-03T05:20:56;0.60;;;0.60;;
15490;SDS011;7847;50.930;4.336;2023-04-03T05:23:23;0.60;;;0.60;;
15490;SDS011;7847;50.930;4.336;2023-04-03T05:25:49;0.50;;;0.50;;
15490;SDS011;7847;50.930;4.336;2023-04-03T05:28:15;0.60;;;0.60;;
15490;SDS011;7847;50.930;4.336;2023-04-03T05:30:42;0.60;;;0.60;;
15490;SDS011;7847;50.930;4.336;2023-04-03T05:33:08;0.50;;;0.50;;
15490;SDS011;7847;50.930;4.336;2023-04-03T05:35:35;0.70;;;0.70;;
15490;SDS011;7847;50.930;4.336;2023-04-03T05:38:04;0.60;;;0.60;;
15490;SDS011;7847;50.930;4.336;2023-04-03T05:40:30;0.60;;;0.60;;
15490;SDS011;7847;50.930;4.336;2023-04-03T05:42:56;0.53;;;0.53;;
15490;SDS011;7847;50.930;4.336;2023-04-03T05:45:22;0.50;;;0.50;;
15490;SDS011;7847;50.930;4.336;2023-04-03T05:47:48;0.50;;;0.50;;
15490;SDS011;7847;50.930;4.336;2023-04-03T05:50:14;0.50;;;0.50;;
15490;SDS011;7847;50.930;4.336;2023-04-03T05:52:41;0.50;;;0.50;;
15490;SDS011;7847;50.930;4.336;2023-04-03T05:55:08;0.60;;;0.60;;
15490;SDS011;7847;50.930;4.336;2023-04-03T05:57:34;0.50;;;0.50;;
15490;SDS011;7847;50.930;4.336;2023-04-03T06:00:00;0.60;;;0.60;;
15490;SDS011;7847;50.930;4.336;2023-04-03T06:02:26;0.60;;;0.60;;
15490;SDS011;7847;50.930;4.336;2023-04-03T06:04:52;0.60;;;0.60;;
15490;SDS011;7847;50.930;4.336;2023-04-03T06:07:20;0.53;;;0.53;;
15490;SDS011;7847;50.930;4.336;2023-04-03T06:09:47;0.60;;;0.60;;
15490;SDS011;7847;50.930;4.336;2023-04-03T06:12:14;0.50;;;0.50;;
15490;SDS011;7847;50.930;4.336;2023-04-03T06:14:40;0.60;;;0.60;;
15490;SDS011;7847;50.930;4.336;2023-04-03T06:17:06;0.60;;;0.60;;
15490;SDS011;7847;50.930;4.336;2023-04-03T06:19:33;0.50;;;0.50;;
15490;SDS011;7847;50.930;4.336;2023-04-03T06:22:00;0.53;;;0.53;;
15490;SDS011;7847;50.930;4.336;2023-04-03T06:24:26;0.60;;;0.60;;
15490;SDS011;7847;50.930;4.336;2023-04-03T06:26:52;0.60;;;0.60;;
15490;SDS011;7847;50.930;4.336;2023-04-03T06:29:19;0.60;;;0.60;;
15490;SDS011;7847;50.930;4.336;2023-04-03T06:31:45;0.40;;;0.40;;
15490;SDS011;7847;50.930;4.336;2023-04-03T06:34:11;0.60;;;0.60;;
15490;SDS011;7847;50.930;4.336;2023-04-03T06:36:38;0.60;;;0.60;;
15490;SDS011;7847;50.930;4.336;2023-04-03T06:39:04;0.60;;;0.60;;
15490;SDS011;7847;50.930;4.336;2023-04-03T06:41:30;0.60;;;0.60;;
15490;SDS011;7847;50.930;4.336;2023-04-03T06:43:56;0.60;;;0.60;;
15490;SDS011;7847;50.930;4.336;2023-04-03T06:46:23;0.50;;;0.50;;
15490;SDS011;7847;50.930;4.336;2023-04-03T06:48:50;0.60;;;0.60;;
15490;SDS011;7847;50.930;4.336;2023-04-03T06:51:23;0.60;;;0.60;;
15490;SDS011;7847;50.930;4.336;2023-04-03T06:53:50;0.40;;;0.40;;
15490;SDS011;7847;50.930;4.336;2023-04-03T06:56:17;0.60;;;0.60;;
15490;SDS011;7847;50.930;4.336;2023-04-03T06:58:44;0.60;;;0.60;;
15490;SDS011;7847;50.930;4.336;2023-04-03T07:01:11;0.50;;;0.50;;
15490;SDS011;7847;50.930;4.336;2023-04-03T07:03:38;0.50;;;0.50;;
15490;SDS011;7847;50.930;4.336;2023-04-03T07:06:04;0.50;;;0.50;;
15490;SDS011;7847;50.930;4.336;2023-04-03T07:08:32;0.50;;;0.50;;
15490;SDS011;7847;50.930;4.336;2023-04-03T07:10:58;0.60;;;0.60;;
15490;SDS011;7847;50.930;4.336;2023-04-03T07:13:24;0.60;;;0.60;;
15490;SDS011;7847;50.930;4.336;2023-04-03T07:15:51;0.50;;;0.50;;
15490;SDS011;7847;50.930;4.336;2023-04-03T07:18:17;0.60;;;0.60;;
15490;SDS011;7847;50.930;4.336;2023-04-03T07:20:44;0.60;;;0.60;;
15490;SDS011;7847;50.930;4.336;2023-04-03T07:23:10;0.50;;;0.50;;
15490;SDS011;7847;50.930;4.336;2023-04-03T07:25:37;0.53;;;0.53;;
15490;SDS011;7847;50.930;4.336;2023-04-03T07:28:03;0.50;;;0.50;;
15490;SDS011;7847;50.930;4.336;2023-04-03T07:30:29;0.50;;;0.50;;
15490;SDS011;7847;50.930;4.336;2023-04-03T07:32:55;0.60;;;0.60;;
15490;SDS011;7847;50.930;4.336;2023-04-03T07:35:21;0.50;;;0.50;;
15490;SDS011;7847;50.930;4.336;2023-04-03T07:37:47;0.60;;;0.60;;
15490;SDS011;7847;50.930;4.336;2023-04-03T07:40:13;0.50;;;0.50;;
15490;SDS011;7847;50.930;4.336;2023-04-03T07:42:39;0.60;;;0.60;;
15490;SDS011;7847;50.930;4.336;2023-04-03T07:45:05;0.50;;;0.50;;
15490;SDS011;7847;50.930;4.336;2023-04-03T07:47:32;0.50;;;0.50;;
15490;SDS011;7847;50.930;4.336;2023-04-03T07:49:58;0.60;;;0.60;;
15490;SDS011;7847;50.930;4.336;2023-04-03T07:52:24;0.50;;;0.50;;
15490;SDS011;7847;50.930;4.336;2023-04-03T07:54:50;0.60;;;0.60;;
15490;SDS011;7847;50.930;4.336;2023-04-03T07:57:16;0.50;;;0.50;;
15490;SDS011;7847;50.930;4.336;2023-04-03T07:59:42;0.40;;;0.40;;
15490;SDS011;7847;50.930;4.336;2023-04-03T08:02:12;0.50;;;0.50;;
15490;SDS011;7847;50.930;4.336;2023-04-03T08:04:38;0.50;;;0.50;;
15490;SDS011;7847;50.930;4.336;2023-04-03T08:07:04;0.50;;;0.50;;
15490;SDS011;7847;50.930;4.336;2023-04-03T08:09:30;0.50;;;0.50;;
15490;SDS011;7847;50.930;4.336;2023-04-03T08:11:57;0.50;;;0.50;;
15490;SDS011;7847;50.930;4.336;2023-04-03T08:14:23;0.50;;;0.50;;
15490;SDS011;7847;50.930;4.336;2023-04-03T08:16:50;0.50;;;0.50;;
15490;SDS011;7847;50.930;4.336;2023-04-03T08:19:16;0.50;;;0.50;;
15490;SDS011;7847;50.930;4.336;2023-04-03T08:21:43;0.50;;;0.50;;
15490;SDS011;7847;50.930;4.336;2023-04-03T08:24:10;0.50;;;0.50;;
15490;SDS011;7847;50.930;4.336;2023-04-03T08:26:36;0.50;;;0.50;;
15490;SDS011;7847;50.930;4.336;2023-04-03T08:29:03;0.50;;;0.50;;
15490;SDS011;7847;50.930;4.336;2023-04-03T08:31:29;0.50;;;0.50;;
15490;SDS011;7847;50.930;4.336;2023-04-03T08:33:56;0.40;;;0.40;;
15490;SDS011;7847;50.930;4.336;2023-04-03T08:36:23;0.50;;;0.50;;
15490;SDS011;7847;50.930;4.336;2023-04-03T08:38:50;0.50;;;0.50;;
15490;SDS011;7847;50.930;4.336;2023-04-03T08:44:23;0.50;;;0.50;;
15490;SDS011;7847;50.930;4.336;2023-04-03T08:49:28;0.40;;;0.40;;
15490;SDS011;7847;50.930;4.336;2023-04-03T08:51:56;0.40;;;0.40;;
15490;SDS011;7847;50.930;4.336;2023-04-03T08:57:09;0.50;;;0.50;;
15490;SDS011;7847;50.930;4.336;2023-04-03T08:59:36;0.50;;;0.50;;
15490;SDS011;7847;50.930;4.336;2023-04-03T09:02:04;0.50;;;0.50;;
15490;SDS011;7847;50.930;4.336;2023-04-03T09:04:38;0.43;;;0.43;;
15490;SDS011;7847;50.930;4.336;2023-04-03T09:07:07;0.40;;;0.40;;
15490;SDS011;7847;50.930;4.336;2023-04-03T09:09:36;0.40;;;0.40;;
15490;SDS011;7847;50.930;4.336;2023-04-03T09:12:24;0.50;;;0.50;;
15490;SDS011;7847;50.930;4.336;2023-04-03T09:14:55;0.50;;;0.50;;
15490;SDS011;7847;50.930;4.336;2023-04-03T09:20:02;0.50;;;0.50;;
15490;SDS011;7847;50.930;4.336;2023-04-03T09:22:31;0.40;;;0.40;;
15490;SDS011;7847;50.930;4.336;2023-04-03T09:27:28;0.50;;;0.50;;
15490;SDS011;7847;50.930;4.336;2023-04-03T09:29:55;0.40;;;0.40;;
15490;SDS011;7847;50.930;4.336;2023-04-03T09:34:47;0.40;;;0.40;;
15490;SDS011;7847;50.930;4.336;2023-04-03T09:37:37;0.40;;;0.40;;
15490;SDS011;7847;50.930;4.336;2023-04-03T09:40:02;0.40;;;0.40;;
15490;SDS011;7847;50.930;4.336;2023-04-03T09:42:29;0.40;;;0.40;;
15490;SDS011;7847;50.930;4.336;2023-04-03T09:45:04;0.40;;;0.40;;
15490;SDS011;7847;50.930;4.336;2023-04-03T09:47:35;0.40;;;0.40;;
15490;SDS011;7847;50.930;4.336;2023-04-03T09:52:35;0.33;;;0.33;;
15490;SDS011;7847;50.930;4.336;2023-04-03T09:55:08;0.40;;;0.40;;
15490;SDS011;7847;50.930;4.336;2023-04-03T09:57:39;0.40;;;0.40;;
15490;SDS011;7847;50.930;4.336;2023-04-03T10:00:06;0.40;;;0.40;;
15490;SDS011;7847;50.930;4.336;2023-04-03T10:02:39;0.40;;;0.40;;
15490;SDS011;7847;50.930;4.336;2023-04-03T10:05:50;0.50;;;0.50;;
15490;SDS011;7847;50.930;4.336;2023-04-03T10:07:51;0.40;;;0.40;;
15490;SDS011;7847;50.930;4.336;2023-04-03T10:10:19;0.40;;;0.40;;
15490;SDS011;7847;50.930;4.336;2023-04-03T10:12:47;0.40;;;0.40;;
15490;SDS011;7847;50.930;4.336;2023-04-03T10:15:15;0.40;;;0.40;;
15490;SDS011;7847;50.930;4.336;2023-04-03T10:22:42;0.40;;;0.40;;
15490;SDS011;7847;50.930;4.336;2023-04-03T10:30:19;0.50;;;0.50;;
15490;SDS011;7847;50.930;4.336;2023-04-03T10:33:23;0.40;;;0.40;;
15490;SDS011;7847;50.930;4.336;2023-04-03T10:41:12;0.30;;;0.30;;
15490;SDS011;7847;50.930;4.336;2023-04-03T10:43:44;0.30;;;0.30;;
15490;SDS011;7847;50.930;4.336;2023-04-03T10:49:03;0.40;;;0.40;;
15490;SDS011;7847;50.930;4.336;2023-04-03T10:51:41;0.40;;;0.40;;
15490;SDS011;7847;50.930;4.336;2023-04-03T10:54:26;0.40;;;0.40;;
15490;SDS011;7847;50.930;4.336;2023-04-03T10:56:57;0.40;;;0.40;;
15490;SDS011;7847;50.930;4.336;2023-04-03T10:59:25;0.30;;;0.30;;
15490;SDS011;7847;50.930;4.336;2023-04-03T11:01:55;0.30;;;0.30;;
15490;SDS011;7847;50.930;4.336;2023-04-03T11:04:22;0.40;;;0.40;;
15490;SDS011;7847;50.930;4.336;2023-04-03T11:06:52;0.40;;;0.40;;
15490;SDS011;7847;50.930;4.336;2023-04-03T11:09:26;0.30;;;0.30;;
15490;SDS011;7847;50.930;4.336;2023-04-03T11:11:56;0.30;;;0.30;;
15490;SDS011;7847;50.930;4.336;2023-04-03T11:14:34;0.40;;;0.40;;
15490;SDS011;7847;50.930;4.336;2023-04-03T11:20:06;0.30;;;0.30;;
15490;SDS011;7847;50.930;4.336;2023-04-03T11:22:23;0.40;;;0.40;;
15490;SDS011;7847;50.930;4.336;2023-04-03T11:24:59;0.40;;;0.40;;
15490;SDS011;7847;50.930;4.336;2023-04-03T11:27:30;0.30;;;0.30;;
15490;SDS011;7847;50.930;4.336;2023-04-03T11:29:59;0.30;;;0.30;;
15490;SDS011;7847;50.930;4.336;2023-04-03T11:35:10;0.30;;;0.30;;
15490;SDS011;7847;50.930;4.336;2023-04-03T11:42:35;0.37;;;0.37;;
15490;SDS011;7847;50.930;4.336;2023-04-03T11:47:49;0.30;;;0.30;;
15490;SDS011;7847;50.930;4.336;2023-04-03T11:53:24;0.30;;;0.30;;
15490;SDS011;7847;50.930;4.336;2023-04-03T11:58:16;0.30;;;0.30;;
15490;SDS011;7847;50.930;4.336;2023-04-03T12:00:55;0.30;;;0.30;;
15490;SDS011;7847;50.930;4.336;2023-04-03T12:16:06;0.30;;;0.30;;
15490;SDS011;7847;50.930;4.336;2023-04-03T12:23:59;0.33;;;0.33;;
15490;SDS011;7847;50.930;4.336;2023-04-03T12:34:43;0.30;;;0.30;;
15490;SDS011;7847;50.930;4.336;2023-04-03T12:45:09;0.40;;;0.40;;
15490;SDS011;7847;50.930;4.336;2023-04-03T12:47:40;0.30;;;0.30;;
15490;SDS011;7847;50.930;4.336;2023-04-03T12:50:21;0.30;;;0.30;;
15490;SDS011;7847;50.930;4.336;2023-04-03T12:53:05;0.40;;;0.40;;
15490;SDS011;7847;50.930;4.336;2023-04-03T12:55:31;0.30;;;0.30;;
15490;SDS011;7847;50.930;4.336;2023-04-03T12:58:12;0.40;;;0.40;;
15490;SDS011;7847;50.930;4.336;2023-04-03T13:00:38;0.30;;;0.30;;
15490;SDS011;7847;50.930;4.336;2023-04-03T13:03:05;0.40;;;0.40;;
15490;SDS011;7847;50.930;4.336;2023-04-03T13:05:32;0.33;;;0.33;;
15490;SDS011;7847;50.930;4.336;2023-04-03T13:07:59;0.30;;;0.30;;
15490;SDS011;7847;50.930;4.336;2023-04-03T13:10:26;0.30;;;0.30;;
15490;SDS011;7847;50.930;4.336;2023-04-03T13:12:54;0.30;;;0.30;;
15490;SDS011;7847;50.930;4.336;2023-04-03T13:15:25;0.30;;;0.30;;
15490;SDS011;7847;50.930;4.336;2023-04-03T13:17:52;0.30;;;0.30;;
15490;SDS011;7847;50.930;4.336;2023-04-03T13:20:20;0.30;;;0.30;;
15490;SDS011;7847;50.930;4.336;2023-04-03T13:22:52;0.30;;;0.30;;
15490;SDS011;7847;50.930;4.336;2023-04-03T13:25:19;0.40;;;0.40;;
15490;SDS011;7847;50.930;4.336;2023-04-03T13:27:47;0.40;;;0.40;;
15490;SDS011;7847;50.930;4.336;2023-04-03T13:30:19;0.40;;;0.40;;
15490;SDS011;7847;50.930;4.336;2023-04-03T13:32:45;0.40;;;0.40;;
15490;SDS011;7847;50.930;4.336;2023-04-03T13:35:25;0.30;;;0.30;;
15490;SDS011;7847;50.930;4.336;2023-04-03T13:37:55;0.30;;;0.30;;
15490;SDS011;7847;50.930;4.336;2023-04-03T13:40:22;0.30;;;0.30;;
15490;SDS011;7847;50.930;4.336;2023-04-03T13:42:58;0.33;;;0.33;;
15490;SDS011;7847;50.930;4.336;2023-04-03T13:45:25;0.30;;;0.30;;
15490;SDS011;7847;50.930;4.336;2023-04-03T13:47:54;0.30;;;0.30;;
15490;SDS011;7847;50.930;4.336;2023-04-03T13:50:32;0.30;;;0.30;;
15490;SDS011;7847;50.930;4.336;2023-04-03T13:53:02;0.30;;;0.30;;
15490;SDS011;7847;50.930;4.336;2023-04-03T13:55:30;0.30;;;0.30;;
15490;SDS011;7847;50.930;4.336;2023-04-03T14:00:30;0.30;;;0.30;;
15490;SDS011;7847;50.930;4.336;2023-04-03T14:02:57;0.30;;;0.30;;
15490;SDS011;7847;50.930;4.336;2023-04-03T14:05:23;0.33;;;0.33;;
15490;SDS011;7847;50.930;4.336;2023-04-03T14:07:50;0.40;;;0.40;;
15490;SDS011;7847;50.930;4.336;2023-04-03T14:10:17;0.30;;;0.30;;
15490;SDS011;7847;50.930;4.336;2023-04-03T14:12:43;0.30;;;0.30;;
15490;SDS011;7847;50.930;4.336;2023-04-03T14:15:23;0.30;;;0.30;;
15490;SDS011;7847;50.930;4.336;2023-04-03T14:17:50;0.30;;;0.30;;
15490;SDS011;7847;50.930;4.336;2023-04-03T14:20:18;0.30;;;0.30;;
15490;SDS011;7847;50.930;4.336;2023-04-03T14:22:45;0.30;;;0.30;;
15490;SDS011;7847;50.930;4.336;2023-04-03T14:25:12;0.30;;;0.30;;
15490;SDS011;7847;50.930;4.336;2023-04-03T14:27:39;0.33;;;0.33;;
15490;SDS011;7847;50.930;4.336;2023-04-03T14:30:07;0.40;;;0.40;;
15490;SDS011;7847;50.930;4.336;2023-04-03T14:32:34;0.30;;;0.30;;
15490;SDS011;7847;50.930;4.336;2023-04-03T14:35:00;0.30;;;0.30;;
15490;SDS011;7847;50.930;4.336;2023-04-03T14:37:27;0.30;;;0.30;;
15490;SDS011;7847;50.930;4.336;2023-04-03T14:39:56;0.30;;;0.30;;
15490;SDS011;7847;50.930;4.336;2023-04-03T14:42:23;0.37;;;0.37;;
15490;SDS011;7847;50.930;4.336;2023-04-03T14:44:50;0.30;;;0.30;;
15490;SDS011;7847;50.930;4.336;2023-04-03T14:47:18;0.30;;;0.30;;
15490;SDS011;7847;50.930;4.336;2023-04-03T14:49:45;0.30;;;0.30;;
15490;SDS011;7847;50.930;4.336;2023-04-03T14:52:33;0.30;;;0.30;;
15490;SDS011;7847;50.930;4.336;2023-04-03T14:54:58;0.30;;;0.30;;
15490;SDS011;7847;50.930;4.336;2023-04-03T14:57:25;0.30;;;0.30;;
15490;SDS011;7847;50.930;4.336;2023-04-03T14:59:52;0.30;;;0.30;;
15490;SDS011;7847;50.930;4.336;2023-04-03T15:02:31;0.30;;;0.30;;
15490;SDS011;7847;50.930;4.336;2023-04-03T15:04:58;0.30;;;0.30;;
15490;SDS011;7847;50.930;4.336;2023-04-03T15:07:25;0.30;;;0.30;;
15490;SDS011;7847;50.930;4.336;2023-04-03T15:09:52;0.30;;;0.30;;
15490;SDS011;7847;50.930;4.336;2023-04-03T15:12:21;0.30;;;0.30;;
15490;SDS011;7847;50.930;4.336;2023-04-03T15:14:47;0.30;;;0.30;;
15490;SDS011;7847;50.930;4.336;2023-04-03T15:17:17;0.40;;;0.40;;
15490;SDS011;7847;50.930;4.336;2023-04-03T15:19:43;0.30;;;0.30;;
15490;SDS011;7847;50.930;4.336;2023-04-03T15:22:17;0.30;;;0.30;;
15490;SDS011;7847;50.930;4.336;2023-04-03T15:24:43;0.30;;;0.30;;
15490;SDS011;7847;50.930;4.336;2023-04-03T15:27:10;0.30;;;0.30;;
15490;SDS011;7847;50.930;4.336;2023-04-03T15:29:37;0.30;;;0.30;;
15490;SDS011;7847;50.930;4.336;2023-04-03T15:32:03;0.30;;;0.30;;
15490;SDS011;7847;50.930;4.336;2023-04-03T15:34:29;0.30;;;0.30;;
15490;SDS011;7847;50.930;4.336;2023-04-03T15:36:56;0.30;;;0.30;;
15490;SDS011;7847;50.930;4.336;2023-04-03T15:39:22;0.30;;;0.30;;
15490;SDS011;7847;50.930;4.336;2023-04-03T15:41:49;0.30;;;0.30;;
15490;SDS011;7847;50.930;4.336;2023-04-03T15:44:16;0.30;;;0.30;;
15490;SDS011;7847;50.930;4.336;2023-04-03T15:46:43;0.30;;;0.30;;
15490;SDS011;7847;50.930;4.336;2023-04-03T15:49:10;0.30;;;0.30;;
15490;SDS011;7847;50.930;4.336;2023-04-03T15:51:36;0.30;;;0.30;;
15490;SDS011;7847;50.930;4.336;2023-04-03T15:54:02;0.30;;;0.30;;
15490;SDS011;7847;50.930;4.336;2023-04-03T15:56:28;0.30;;;0.30;;
15490;SDS011;7847;50.930;4.336;2023-04-03T15:58:54;0.30;;;0.30;;
15490;SDS011;7847;50.930;4.336;2023-04-03T16:01:21;0.30;;;0.30;;
15490;SDS011;7847;50.930;4.336;2023-04-03T16:03:47;0.30;;;0.30;;
15490;SDS011;7847;50.930;4.336;2023-04-03T16:06:16;0.30;;;0.30;;
15490;SDS011;7847;50.930;4.336;2023-04-03T16:08:44;0.30;;;0.30;;
15490;SDS011;7847;50.930;4.336;2023-04-03T16:11:10;0.30;;;0.30;;
15490;SDS011;7847;50.930;4.336;2023-04-03T16:13:36;0.30;;;0.30;;
15490;SDS011;7847;50.930;4.336;2023-04-03T16:16:02;0.30;;;0.30;;
15490;SDS011;7847;50.930;4.336;2023-04-03T16:18:29;0.30;;;0.30;;
15490;SDS011;7847;50.930;4.336;2023-04-03T16:20:55;0.30;;;0.30;;
15490;SDS011;7847;50.930;4.336;2023-04-03T16:23:21;0.30;;;0.30;;
15490;SDS011;7847;50.930;4.336;2023-04-03T16:25:47;0.30;;;0.30;;
15490;SDS011;7847;50.930;4.336;2023-04-03T16:28:15;0.30;;;0.30;;
15490;SDS011;7847;50.930;4.336;2023-04-03T16:30:42;0.30;;;0.30;;
15490;SDS011;7847;50.930;4.336;2023-04-03T16:33:08;0.30;;;0.30;;
15490;SDS011;7847;50.930;4.336;2023-04-03T16:35:35;0.30;;;0.30;;
15490;SDS011;7847;50.930;4.336;2023-04-03T16:38:01;0.37;;;0.37;;
15490;SDS011;7847;50.930;4.336;2023-04-03T16:40:27;0.30;;;0.30;;